createdAt,value
2019-01-20T00:02:36.693Z,64.3
2019-01-20T00:07:33.861Z,64.4
2019-01-20T00:12:31.164Z,64.5
2019-01-20T00:17:28.166Z,64.6
2019-01-20T00:22:25.374Z,64.9
2019-01-20T00:27:22.573Z,65.1
2019-01-20T00:32:19.820Z,65.3
2019-01-20T00:37:16.901Z,65.2
2019-01-20T00:42:14.422Z,65.2
2019-01-20T00:47:11.025Z,65.4
2019-01-20T00:52:08.059Z,65.3
2019-01-20T00:57:05.173Z,65.6
2019-01-20T01:02:02.640Z,65.8
2019-01-20T01:07:00.032Z,66.1
2019-01-20T01:11:57.488Z,66.4
2019-01-20T01:16:54.812Z,66.5
2019-01-20T01:21:51.778Z,67
2019-01-20T01:26:48.909Z,67
2019-01-20T01:31:46.239Z,67.1
2019-01-20T01:36:43.455Z,67.2
2019-01-20T01:41:41.066Z,67.3
2019-01-20T01:46:38.231Z,67.4
2019-01-20T01:51:35.337Z,67.3
2019-01-20T01:56:32.594Z,67.3
2019-01-20T02:01:29.989Z,67.4
2019-01-20T02:06:27.229Z,67.3
2019-01-20T02:11:24.483Z,67.2
2019-01-20T02:16:21.011Z,67.4
2019-01-20T02:21:18.218Z,67.2
2019-01-20T02:26:15.485Z,66.9
2019-01-20T02:31:12.686Z,66.9
2019-01-20T02:36:09.683Z,66.9
2019-01-20T02:41:06.994Z,66.9
2019-01-20T02:46:04.330Z,66.9
2019-01-20T02:51:01.614Z,67
2019-01-20T02:55:58.851Z,66.9
2019-01-20T03:00:56.113Z,67
2019-01-20T03:05:53.463Z,66.8
2019-01-20T03:10:52.208Z,66.9
2019-01-20T03:15:48.833Z,66.5
2019-01-20T03:20:45.986Z,66.6
2019-01-20T03:25:43.123Z,66.6
2019-01-20T03:30:40.574Z,66.5
2019-01-20T03:35:37.625Z,66.4
2019-01-20T03:40:34.966Z,66.4
2019-01-20T03:45:32.166Z,66.6
2019-01-20T03:50:29.573Z,66.6
2019-01-20T03:55:26.791Z,66.7
2019-01-20T04:00:24.091Z,66.5
2019-01-20T04:05:21.881Z,66.7
2019-01-20T04:10:19.061Z,66.6
2019-01-20T04:15:16.275Z,66.6
2019-01-20T04:20:13.448Z,66.3
2019-01-20T04:25:10.618Z,66.8
2019-01-20T04:30:08.062Z,66.4
2019-01-20T04:35:05.296Z,66.4
2019-01-20T04:40:02.500Z,66.5
2019-01-20T04:44:59.466Z,66.3
2019-01-20T04:49:56.910Z,66.2
2019-01-20T04:54:54.032Z,65.8
2019-01-20T04:59:51.282Z,66.3
2019-01-20T05:04:47.887Z,66.2
2019-01-20T05:09:45.202Z,66.3
2019-01-20T05:14:42.611Z,65.9
2019-01-20T05:24:37.226Z,66
2019-01-20T05:29:34.386Z,66.2
2019-01-20T05:34:31.391Z,66.3
2019-01-20T05:39:28.648Z,66.2
2019-01-20T05:44:25.846Z,66.2
2019-01-20T05:49:23.393Z,66.5
2019-01-20T05:54:20.618Z,66.4
2019-01-20T05:59:17.852Z,66.5
2019-01-20T06:04:15.176Z,66.4
2019-01-20T06:09:12.292Z,66.4
2019-01-20T06:14:09.435Z,66.3
2019-01-20T06:19:06.266Z,66.2
2019-01-20T06:24:03.564Z,66.4
2019-01-20T06:29:00.992Z,66.3
2019-01-20T06:33:58.485Z,66.1
2019-01-20T06:38:55.718Z,66.5
2019-01-20T06:43:53.081Z,66.2
2019-01-20T06:48:50.459Z,66.1
2019-01-20T06:53:47.577Z,66.2
2019-01-20T06:58:44.859Z,66.2
2019-01-20T07:03:42.359Z,66.1
2019-01-20T07:08:39.816Z,65.7
2019-01-20T07:13:36.875Z,65.6
2019-01-20T07:18:34.418Z,65.7
2019-01-20T07:23:31.711Z,65.7
2019-01-20T07:28:29.161Z,65.3
2019-01-20T07:33:26.128Z,65.2
2019-01-20T07:38:23.357Z,65.1
2019-01-20T07:43:20.668Z,65.1
2019-01-20T07:48:18.053Z,65.3
2019-01-20T07:53:15.146Z,65.2
2019-01-20T07:58:12.351Z,65.1
2019-01-20T08:03:09.694Z,64.7
2019-01-20T08:13:04.616Z,64.2
2019-01-20T08:18:02.336Z,64.3
2019-01-20T08:22:59.455Z,64.1
2019-01-20T08:27:56.930Z,63.9
2019-01-20T08:32:54.354Z,64.2
2019-01-20T08:37:51.621Z,64.1
2019-01-20T08:42:48.893Z,63.3
2019-01-20T08:47:46.264Z,63.3
2019-01-20T08:52:43.588Z,63.2
2019-01-20T08:57:41.033Z,62.7
2019-01-20T09:02:38.348Z,63
2019-01-20T09:07:35.595Z,62.9
2019-01-20T09:12:33.118Z,62.7
2019-01-20T09:17:30.508Z,63
2019-01-20T09:22:27.772Z,63.1
2019-01-20T09:27:25.090Z,62.8
2019-01-20T09:32:22.490Z,62.6
2019-01-20T09:37:19.951Z,62.6
2019-01-20T09:42:17.079Z,62.4
2019-01-20T09:47:14.318Z,62.4
2019-01-20T09:52:11.444Z,62.3
2019-01-20T09:57:08.837Z,62.5
2019-01-20T10:02:05.989Z,62.5
2019-01-20T10:07:03.293Z,62.9
2019-01-20T10:12:00.350Z,63.1
2019-01-20T10:16:57.628Z,62.5
2019-01-20T10:21:55.613Z,62.7
2019-01-20T10:26:52.616Z,62.4
2019-01-20T10:31:49.956Z,62.4
2019-01-20T10:36:47.098Z,62.3
2019-01-20T10:41:44.546Z,62.3
2019-01-20T10:46:41.851Z,62.2
2019-01-20T10:51:39.191Z,62
2019-01-20T10:56:36.704Z,62
2019-01-20T11:01:34.005Z,61.9
2019-01-20T11:06:31.537Z,61.9
2019-01-20T11:11:28.991Z,62
2019-01-20T11:16:26.390Z,61.7
2019-01-20T11:21:23.636Z,61.6
2019-01-20T11:26:21.058Z,61.5
2019-01-20T11:31:18.401Z,61.1
2019-01-20T11:36:15.393Z,60.6
2019-01-20T11:41:12.395Z,61.1
2019-01-20T11:46:09.854Z,60.9
2019-01-20T11:51:07.187Z,60.6
2019-01-20T11:56:04.771Z,60.4
2019-01-20T12:01:02.348Z,60.6
2019-01-20T12:05:59.787Z,60.9
2019-01-20T12:10:56.913Z,61
2019-01-20T12:15:54.306Z,60.9
2019-01-20T12:20:51.563Z,60.6
2019-01-20T12:25:48.976Z,60.7
2019-01-20T12:30:46.210Z,61.3
2019-01-20T12:35:43.668Z,61.7
2019-01-20T12:40:41.127Z,62.3
2019-01-20T12:45:38.370Z,62.8
2019-01-20T12:50:35.363Z,63.1
2019-01-20T12:55:32.536Z,64.1
2019-01-20T13:00:29.930Z,64.3
2019-01-20T13:05:27.096Z,64.3
2019-01-20T13:10:24.271Z,64.1
2019-01-20T13:15:21.771Z,64.1
2019-01-20T13:20:18.925Z,63.8
2019-01-20T13:25:16.343Z,63.8
2019-01-20T13:30:13.987Z,64
2019-01-20T13:35:11.514Z,63.8
2019-01-20T13:40:08.602Z,63.5
2019-01-20T13:45:06.038Z,63.5
2019-01-20T13:50:03.326Z,63.3
2019-01-20T13:55:00.791Z,63.6
2019-01-20T13:59:57.863Z,64.1
2019-01-20T14:04:55.109Z,63.9
2019-01-20T14:09:52.088Z,63.2
2019-01-20T14:14:53.821Z,62.7
2019-01-20T14:19:45.970Z,63.2
2019-01-20T14:24:43.577Z,63.5
2019-01-20T14:29:40.786Z,64.2
2019-01-20T14:34:38.131Z,64.1
2019-01-20T14:44:32.546Z,63.4
2019-01-20T14:49:29.803Z,63.8
2019-01-20T14:54:27.131Z,63.9
2019-01-20T14:59:24.213Z,63.7
2019-01-20T15:04:21.716Z,64
2019-01-20T15:09:18.904Z,64.7
2019-01-20T15:14:16.195Z,64.7
2019-01-20T15:19:13.413Z,64.4
2019-01-20T15:24:10.856Z,65.1
2019-01-20T15:29:08.132Z,64.9
2019-01-20T15:34:05.493Z,64.9
2019-01-20T15:39:02.765Z,64.8
2019-01-20T15:44:00.335Z,64.7
2019-01-20T15:48:57.427Z,65.3
2019-01-20T15:53:54.268Z,65.4
2019-01-20T15:58:51.332Z,65.8
2019-01-20T16:03:48.738Z,66.3
2019-01-20T16:08:46.084Z,66.5
2019-01-20T16:13:44.133Z,66
2019-01-20T16:18:41.371Z,66.1
2019-01-20T16:23:38.560Z,66.5
2019-01-20T16:28:35.786Z,66.6
2019-01-20T16:33:33.256Z,66.3
2019-01-20T16:38:30.455Z,67
2019-01-20T16:43:27.646Z,67.3
2019-01-20T16:48:24.713Z,67.4
2019-01-20T16:53:21.996Z,67.1
2019-01-20T16:58:19.372Z,67.3
2019-01-20T17:03:16.604Z,67.3
2019-01-20T17:08:14.010Z,67.4
2019-01-20T17:13:11.364Z,67.5
2019-01-20T17:18:08.673Z,67.2
2019-01-20T17:23:05.906Z,67.1
2019-01-20T17:28:03.203Z,66.8
2019-01-20T17:33:00.469Z,66.7
2019-01-20T17:42:54.545Z,66.4
2019-01-20T17:47:51.801Z,66.5
2019-01-20T17:52:49.151Z,66.5
2019-01-20T17:57:46.395Z,66.8
2019-01-20T18:02:44.028Z,67
2019-01-20T18:07:41.091Z,66.7
2019-01-20T18:12:38.390Z,66.9
2019-01-20T18:17:35.223Z,67.2
2019-01-20T18:22:32.539Z,67.6
2019-01-20T18:27:30.057Z,67.4
2019-01-20T18:32:27.483Z,67.5
2019-01-20T18:37:24.813Z,67.6
2019-01-20T18:42:22.325Z,67.4
2019-01-20T18:47:19.260Z,67.9
2019-01-20T18:52:16.661Z,68
2019-01-20T18:57:13.802Z,68
2019-01-20T19:02:11.176Z,68.1
2019-01-20T19:07:08.603Z,68.2
2019-01-20T19:12:05.491Z,68.2
2019-01-20T19:17:02.689Z,68.3
2019-01-20T19:22:00.094Z,68.1
2019-01-20T19:26:57.456Z,68.2
2019-01-20T19:31:54.743Z,67.9
2019-01-20T19:36:52.087Z,67.3
2019-01-20T19:41:49.516Z,67.5
2019-01-20T19:46:46.980Z,67.4
2019-01-20T19:51:44.560Z,67.3
2019-01-20T19:56:41.963Z,67.3
2019-01-20T20:01:39.351Z,67.3
2019-01-20T20:06:36.860Z,67.5
2019-01-20T20:11:34.464Z,67.4
2019-01-20T20:16:31.911Z,67.5
2019-01-20T20:21:28.217Z,67.3
2019-01-20T20:26:25.485Z,67.6
2019-01-20T20:31:22.899Z,67.8
2019-01-20T20:36:19.903Z,67.8
2019-01-20T20:41:17.397Z,67.7
2019-01-20T20:46:14.524Z,67.7
2019-01-20T20:51:11.428Z,68
2019-01-20T20:56:08.668Z,67.9
2019-01-20T21:01:06.169Z,67.7
2019-01-20T21:06:03.605Z,67.2
2019-01-20T21:11:01.369Z,67.8
2019-01-20T21:15:58.767Z,67.4
2019-01-20T21:20:56.068Z,67.7
2019-01-20T21:25:53.307Z,67.5
2019-01-20T21:30:50.523Z,67.8
2019-01-20T21:35:48.059Z,68
2019-01-20T21:40:44.890Z,68.3
2019-01-20T21:45:42.253Z,68.4
2019-01-20T21:50:39.344Z,68.6
2019-01-20T21:55:36.464Z,68.4
2019-01-20T22:00:33.873Z,68.5
2019-01-20T22:05:30.760Z,68.6
2019-01-20T22:10:28.126Z,68.8
2019-01-20T22:15:25.365Z,68.5
2019-01-20T22:20:23.245Z,68.1
2019-01-20T22:25:20.398Z,68
2019-01-20T22:30:17.921Z,68
2019-01-20T22:35:15.009Z,67.9
2019-01-20T22:40:12.230Z,68
2019-01-20T22:45:09.789Z,67.8
2019-01-20T22:50:07.100Z,67.8
2019-01-20T22:55:03.574Z,68
2019-01-20T23:00:00.958Z,68.2
2019-01-20T23:04:58.436Z,68.2
2019-01-20T23:09:55.858Z,68
2019-01-20T23:14:53.264Z,68.1
2019-01-20T23:19:50.645Z,67.5
2019-01-20T23:24:47.740Z,68.1
2019-01-20T23:29:45.295Z,68.1
2019-01-20T23:34:42.513Z,68.4
2019-01-20T23:39:39.871Z,68.5
2019-01-20T23:44:37.092Z,68.7
2019-01-20T23:49:34.141Z,68.9
2019-01-20T23:54:31.387Z,68.7
2019-01-20T23:59:28.239Z,68.7
